createdAt,value
2018-08-12T00:00:02.227Z,100718.08
2018-08-12T00:02:30.759Z,100721.83
2018-08-12T00:05:00.072Z,100712.31
2018-08-12T00:07:30.271Z,100718.27
2018-08-12T00:09:59.038Z,100706.05
2018-08-12T00:12:27.505Z,100703.20
2018-08-12T00:14:55.999Z,100700.81
2018-08-12T00:17:24.511Z,100697.09
2018-08-12T00:19:52.960Z,100695.66
2018-08-12T00:22:21.686Z,100695.11
2018-08-12T00:24:50.284Z,100695.77
2018-08-12T00:27:18.693Z,100684.59
2018-08-12T00:29:47.152Z,100688.47
2018-08-12T00:32:15.662Z,100692.59
2018-08-12T00:34:44.156Z,100684.66
2018-08-12T00:37:12.923Z,100688.56
2018-08-12T00:39:41.401Z,100686.44
2018-08-12T00:42:09.855Z,100691.05
2018-08-12T00:44:38.583Z,100690.19
2018-08-12T00:47:07.055Z,100682.77
2018-08-12T00:49:35.467Z,100682.81
2018-08-12T00:52:04.155Z,100686.76
2018-08-12T00:54:32.627Z,100681.09
2018-08-12T00:57:01.127Z,100686.59
2018-08-12T00:59:29.562Z,100687.81
2018-08-12T01:01:58.128Z,100684.19
2018-08-12T01:04:26.695Z,100682.73
2018-08-12T01:06:55.339Z,100681.30
2018-08-12T01:09:23.851Z,100676.70
2018-08-12T01:11:52.262Z,100679.20
2018-08-12T01:14:20.778Z,100675.00
2018-08-12T01:16:49.219Z,100677.29
2018-08-12T01:19:17.746Z,100682.22
2018-08-12T01:21:46.259Z,100679.27
2018-08-12T01:24:14.748Z,100680.87
2018-08-12T01:26:43.215Z,100676.12
2018-08-12T01:29:11.743Z,100672.58
2018-08-12T01:31:40.271Z,100673.64
2018-08-12T01:34:08.755Z,100674.28
2018-08-12T01:36:37.524Z,100675.43
2018-08-12T01:39:08.159Z,100669.33
2018-08-12T01:41:36.700Z,100669.11
2018-08-12T01:44:05.439Z,100664.66
2018-08-12T01:46:33.994Z,100668.20
2018-08-12T01:49:02.494Z,100664.75
2018-08-12T01:51:31.022Z,100664.52
2018-08-12T01:53:59.540Z,100665.52
2018-08-12T01:56:28.387Z,100660.47
2018-08-12T01:58:56.828Z,100657.34
2018-08-12T02:01:25.331Z,100659.88
2018-08-12T02:03:53.930Z,100661.66
2018-08-12T02:06:22.366Z,100662.12
2018-08-12T02:08:50.814Z,100661.57
2018-08-12T02:11:19.351Z,100657.84
2018-08-12T02:13:47.887Z,100655.19
2018-08-12T02:16:16.387Z,100659.18
2018-08-12T02:18:44.993Z,100653.66
2018-08-12T02:21:13.442Z,100651.06
2018-08-12T02:23:41.851Z,100650.31
2018-08-12T02:26:10.358Z,100639.58
2018-08-12T02:28:38.864Z,100640.08
2018-08-12T02:31:07.348Z,100639.20
2018-08-12T02:33:36.103Z,100634.53
2018-08-12T02:36:04.539Z,100636.59
2018-08-12T02:38:32.931Z,100638.83
2018-08-12T02:41:01.488Z,100629.42
2018-08-12T02:43:29.883Z,100634.21
2018-08-12T02:45:58.302Z,100627.09
2018-08-12T02:48:26.740Z,100626.45
2018-08-12T02:50:55.171Z,100625.84
2018-08-12T02:53:23.655Z,100624.80
2018-08-12T02:55:53.013Z,100620.53
2018-08-12T02:58:21.708Z,100619.42
2018-08-12T03:00:50.120Z,100617.41
2018-08-12T03:03:18.952Z,100621.03
2018-08-12T03:08:21.424Z,100618.33
2018-08-12T03:10:49.928Z,100617.67
2018-08-12T03:13:18.397Z,100619.69
2018-08-12T03:15:46.839Z,100609.41
2018-08-12T03:18:15.297Z,100604.52
2018-08-12T03:20:43.743Z,100600.67
2018-08-12T03:23:12.351Z,100598.83
2018-08-12T03:25:40.838Z,100596.12
2018-08-12T03:28:09.373Z,100588.86
2018-08-12T03:30:37.965Z,100595.05
2018-08-12T03:33:06.774Z,100593.72
2018-08-12T03:35:35.346Z,100589.53
2018-08-12T03:38:04.011Z,100600.58
2018-08-12T03:40:32.507Z,100587.94
2018-08-12T03:43:00.983Z,100590.88
2018-08-12T03:45:29.476Z,100583.77
2018-08-12T03:47:57.863Z,100591.66
2018-08-12T03:50:26.389Z,100578.39
2018-08-12T03:52:54.955Z,100576.58
2018-08-12T03:55:23.375Z,100571.26
2018-08-12T03:57:51.812Z,100571.80
2018-08-12T04:00:20.306Z,100562.84
2018-08-12T04:02:49.414Z,100561.75
2018-08-12T04:05:18.805Z,100561.46
2018-08-12T04:07:47.461Z,100556.41
2018-08-12T04:10:15.939Z,100563.36
2018-08-12T04:12:44.602Z,100563.75
2018-08-12T04:15:13.379Z,100559.30
2018-08-12T04:17:42.247Z,100558.47
2018-08-12T04:20:11.746Z,100567.94
2018-08-12T04:22:40.315Z,100566.82
2018-08-12T04:25:08.838Z,100566.20
2018-08-12T04:27:37.317Z,100564.16
2018-08-12T04:30:07.835Z,100565.66
2018-08-12T04:32:36.312Z,100561.71
2018-08-12T04:35:05.651Z,100558.09
2018-08-12T04:37:34.106Z,100570.77
2018-08-12T04:40:02.536Z,100563.99
2018-08-12T04:42:31.008Z,100560.41
2018-08-12T04:44:59.791Z,100566.86
2018-08-12T04:47:28.219Z,100566.51
2018-08-12T04:49:56.799Z,100568.69
2018-08-12T04:52:25.230Z,100570.41
2018-08-12T04:54:53.631Z,100562.72
2018-08-12T04:57:22.096Z,100563.89
2018-08-12T04:59:50.700Z,100559.48
2018-08-12T05:02:19.163Z,100572.44
2018-08-12T05:04:47.598Z,100571.64
2018-08-12T05:07:16.127Z,100571.17
2018-08-12T05:09:44.535Z,100561.76
2018-08-12T05:12:12.923Z,100560.70
2018-08-12T05:14:41.781Z,100561.63
2018-08-12T05:17:10.261Z,100551.05
2018-08-12T05:19:38.743Z,100545.84
2018-08-12T05:22:07.711Z,100547.50
2018-08-12T05:24:36.135Z,100557.98
2018-08-12T05:27:04.607Z,100557.39
2018-08-12T05:29:33.063Z,100562.80
2018-08-12T05:32:01.551Z,100566.22
2018-08-12T05:34:30.024Z,100557.73
2018-08-12T05:36:58.679Z,100557.83
2018-08-12T05:39:27.067Z,100563.43
2018-08-12T05:41:55.623Z,100560.36
2018-08-12T05:44:24.087Z,100557.54
2018-08-12T05:46:52.613Z,100558.87
2018-08-12T05:49:21.119Z,100552.75
2018-08-12T05:51:49.595Z,100554.31
2018-08-12T05:54:18.007Z,100545.93
2018-08-12T05:56:46.491Z,100544.40
2018-08-12T05:59:15.328Z,100541.83
2018-08-12T06:01:43.784Z,100537.88
2018-08-12T06:04:12.175Z,100537.65
2018-08-12T06:06:40.708Z,100540.16
2018-08-12T06:09:10.464Z,100540.61
2018-08-12T06:11:38.994Z,100536.60
2018-08-12T06:14:08.444Z,100533.16
2018-08-12T06:16:36.992Z,100537.28
2018-08-12T06:19:05.477Z,100529.47
2018-08-12T06:21:34.123Z,100527.59
2018-08-12T06:24:02.783Z,100531.42
2018-08-12T06:26:31.311Z,100527.12
2018-08-12T06:29:00.016Z,100521.16
2018-08-12T06:31:28.456Z,100521.78
2018-08-12T06:33:56.923Z,100516.02
2018-08-12T06:36:25.619Z,100522.36
2018-08-12T06:38:54.039Z,100521.86
2018-08-12T06:41:22.493Z,100518.42
2018-08-12T06:43:51.023Z,100515.13
2018-08-12T06:46:19.526Z,100510.41
2018-08-12T06:48:48.035Z,100515.20
2018-08-12T06:51:16.722Z,100510.44
2018-08-12T06:53:45.166Z,100513.68
2018-08-12T06:56:13.686Z,100507.48
2018-08-12T06:58:42.245Z,100503.38
2018-08-12T07:01:10.704Z,100504.03
2018-08-12T07:03:46.372Z,100503.33
2018-08-12T07:06:14.787Z,100506.22
2018-08-12T07:08:43.289Z,100503.06
2018-08-12T07:11:11.715Z,100498.63
2018-08-12T07:13:40.193Z,100496.98
2018-08-12T07:16:08.616Z,100496.83
2018-08-12T07:18:37.112Z,100497.47
2018-08-12T07:21:05.578Z,100492.80
2018-08-12T07:23:34.096Z,100496.45
2018-08-12T07:26:02.886Z,100494.52
2018-08-12T07:28:31.352Z,100487.98
2018-08-12T07:30:59.756Z,100485.51
2018-08-12T07:33:28.331Z,100481.58
2018-08-12T07:35:56.726Z,100483.09
2018-08-12T07:38:25.351Z,100478.41
2018-08-12T07:40:53.911Z,100476.50
2018-08-12T07:43:22.320Z,100475.13
2018-08-12T07:45:50.867Z,100467.58
2018-08-12T07:48:19.715Z,100462.48
2018-08-12T07:50:48.134Z,100455.41
2018-08-12T07:53:16.655Z,100457.05
2018-08-12T07:55:45.195Z,100452.52
2018-08-12T07:58:13.651Z,100454.70
2018-08-12T08:00:42.080Z,100455.80
2018-08-12T08:03:10.823Z,100451.87
2018-08-12T08:05:39.287Z,100449.14
2018-08-12T08:08:07.763Z,100454.56
2018-08-12T08:10:36.355Z,100448.34
2018-08-12T08:13:04.924Z,100447.09
2018-08-12T08:15:33.353Z,100445.86
2018-08-12T08:18:02.300Z,100443.45
2018-08-12T08:20:30.771Z,100442.80
2018-08-12T08:22:59.270Z,100440.69
2018-08-12T08:25:27.873Z,100437.41
2018-08-12T08:27:56.385Z,100437.22
2018-08-12T08:30:24.947Z,100435.69
2018-08-12T08:32:53.408Z,100444.93
2018-08-12T08:35:21.822Z,100431.34
2018-08-12T08:37:50.278Z,100428.41
2018-08-12T08:40:18.738Z,100424.59
2018-08-12T08:42:47.658Z,100425.06
2018-08-12T08:45:19.522Z,100425.88
2018-08-12T08:47:49.155Z,100422.53
2018-08-12T08:50:18.799Z,100419.63
2018-08-12T08:52:47.360Z,100421.82
2018-08-12T08:55:16.378Z,100416.41
2018-08-12T08:57:45.497Z,100411.27
2018-08-12T09:00:16.771Z,100404.46
2018-08-12T09:02:48.197Z,100397.38
2018-08-12T09:05:17.187Z,100392.71
2018-08-12T09:07:45.779Z,100390.92
2018-08-12T09:10:15.695Z,100392.30
2018-08-12T09:12:44.233Z,100386.66
2018-08-12T09:15:14.910Z,100392.66
2018-08-12T09:17:44.384Z,100392.09
2018-08-12T09:20:14.850Z,100383.85
2018-08-12T09:22:43.435Z,100381.03
2018-08-12T09:25:12.864Z,100378.52
2018-08-12T09:27:41.489Z,100378.88
2018-08-12T09:30:19.980Z,100376.71
2018-08-12T09:32:49.144Z,100368.40
2018-08-12T09:35:17.895Z,100369.68
2018-08-12T09:37:46.374Z,100363.55
2018-08-12T09:40:16.094Z,100365.52
2018-08-12T09:42:45.508Z,100364.97
2018-08-12T09:45:16.375Z,100354.12
2018-08-12T09:47:45.080Z,100355.80
2018-08-12T09:50:14.991Z,100348.15
2018-08-12T09:52:43.637Z,100337.28
2018-08-12T09:55:13.081Z,100337.75
2018-08-12T09:57:41.540Z,100335.42
2018-08-12T10:00:20.224Z,100334.24
2018-08-12T10:02:49.006Z,100329.55
2018-08-12T10:05:17.947Z,100324.45
2018-08-12T10:07:46.646Z,100324.52
2018-08-12T10:10:15.542Z,100316.76
2018-08-12T10:12:44.571Z,100318.23
2018-08-12T10:15:13.827Z,100312.34
2018-08-12T10:17:43.735Z,100309.27
2018-08-12T10:20:12.217Z,100313.41
2018-08-12T10:22:40.767Z,100311.98
2018-08-12T10:25:10.151Z,100306.23
2018-08-12T10:27:38.976Z,100303.02
2018-08-12T10:30:09.905Z,100306.42
2018-08-12T10:32:38.738Z,100298.24
2018-08-12T10:35:08.668Z,100293.52
2018-08-12T10:37:37.159Z,100290.36
2018-08-12T10:40:07.951Z,100287.86
2018-08-12T10:42:36.371Z,100290.23
2018-08-12T10:45:06.771Z,100283.37
2018-08-12T10:47:35.444Z,100286.16
2018-08-12T10:50:04.487Z,100284.27
2018-08-12T10:52:32.983Z,100270.59
2018-08-12T10:55:01.471Z,100272.17
2018-08-12T10:57:29.983Z,100265.56
2018-08-12T10:59:58.587Z,100254.95
2018-08-12T11:02:27.249Z,100257.39
2018-08-12T11:04:55.955Z,100261.70
2018-08-12T11:07:24.485Z,100263.22
2018-08-12T11:09:53.163Z,100259.27
2018-08-12T11:12:22.140Z,100256.68
2018-08-12T11:14:50.631Z,100248.84
2018-08-12T11:17:19.031Z,100243.31
2018-08-12T11:19:47.815Z,100241.90
2018-08-12T11:22:16.269Z,100230.02
2018-08-12T11:24:44.814Z,100218.78
2018-08-12T11:27:13.415Z,100216.83
2018-08-12T11:29:41.869Z,100215.05
2018-08-12T11:32:10.263Z,100207.03
2018-08-12T11:34:38.739Z,100207.03
2018-08-12T11:37:07.263Z,100205.18
2018-08-12T11:39:35.733Z,100194.14
2018-08-12T11:42:04.703Z,100193.28
2018-08-12T11:44:33.211Z,100191.95
2018-08-12T11:47:01.759Z,100191.22
2018-08-12T11:49:30.268Z,100183.97
2018-08-12T11:51:58.739Z,100187.03
2018-08-12T11:54:27.179Z,100182.98
2018-08-12T11:56:56.172Z,100169.53
2018-08-12T11:59:24.642Z,100165.69
2018-08-12T12:01:53.104Z,100169.41
2018-08-12T12:04:21.683Z,100167.61
2018-08-12T12:06:50.207Z,100153.16
2018-08-12T12:09:18.681Z,100150.06
2018-08-12T12:11:47.226Z,100151.41
2018-08-12T12:14:15.667Z,100151.81
2018-08-12T12:16:44.177Z,100137.77
2018-08-12T12:19:12.611Z,100135.59
2018-08-12T12:21:41.115Z,100133.97
2018-08-12T12:24:09.658Z,100133.53
2018-08-12T12:26:38.151Z,100130.89
2018-08-12T12:29:06.667Z,100136.50
2018-08-12T12:31:35.184Z,100127.84
2018-08-12T12:34:04.341Z,100129.83
2018-08-12T12:36:32.839Z,100125.88
2018-08-12T12:39:01.459Z,100121.83
2018-08-12T12:41:29.927Z,100116.34
2018-08-12T12:43:58.429Z,100111.13
2018-08-12T12:46:26.898Z,100103.23
2018-08-12T12:48:55.339Z,100096.53
2018-08-12T12:51:23.787Z,100092.03
2018-08-12T12:53:52.206Z,100093.41
2018-08-12T12:56:21.027Z,100083.11
2018-08-12T12:58:49.452Z,100085.69
2018-08-12T13:01:17.893Z,100083.66
2018-08-12T13:03:46.409Z,100073.53
2018-08-12T13:06:14.815Z,100076.38
2018-08-12T13:08:43.341Z,100065.89
2018-08-12T13:11:12.437Z,100061.54
2018-08-12T13:13:40.859Z,100064.70
2018-08-12T13:16:09.351Z,100067.34
2018-08-12T13:18:38.162Z,100056.71
2018-08-12T13:21:06.718Z,100053.27
2018-08-12T13:23:35.167Z,100049.95
2018-08-12T13:26:03.655Z,100047.00
2018-08-12T13:28:32.071Z,100038.69
2018-08-12T13:31:00.599Z,100038.22
2018-08-12T13:33:29.148Z,100033.28
2018-08-12T13:35:57.607Z,100028.42
2018-08-12T13:38:26.091Z,100023.37
2018-08-12T13:40:54.644Z,100009.20
2018-08-12T13:43:23.134Z,100010.64
2018-08-12T13:45:51.537Z,100007.53
2018-08-12T13:48:20.092Z,99995.73
2018-08-12T13:50:48.598Z,99994.75
2018-08-12T13:53:17.102Z,99991.18
2018-08-12T13:55:45.463Z,99990.12
2018-08-12T13:58:13.892Z,99976.03
2018-08-12T14:00:42.295Z,99980.52
2018-08-12T14:03:10.971Z,99970.73
2018-08-12T14:05:39.416Z,99964.79
2018-08-12T14:08:07.871Z,99962.00
2018-08-12T14:10:36.319Z,99960.84
2018-08-12T14:13:04.731Z,99960.17
2018-08-12T14:15:33.227Z,99955.39
2018-08-12T14:18:01.709Z,99953.73
2018-08-12T14:20:30.158Z,99947.42
2018-08-12T14:22:58.910Z,99937.18
2018-08-12T14:25:27.746Z,99933.94
2018-08-12T14:27:56.207Z,99924.03
2018-08-12T14:30:24.659Z,99925.91
2018-08-12T14:32:53.439Z,99920.26
2018-08-12T14:35:21.887Z,99911.14
2018-08-12T14:37:50.371Z,99912.31
2018-08-12T14:40:18.935Z,99904.84
2018-08-12T14:42:47.468Z,99903.46
2018-08-12T14:45:16.617Z,99899.70
2018-08-12T14:47:45.519Z,99897.09
2018-08-12T14:50:16.544Z,99897.66
2018-08-12T14:52:45.070Z,99893.31
2018-08-12T14:55:14.036Z,99892.68
2018-08-12T14:57:43.065Z,99884.80
2018-08-12T15:00:17.355Z,99882.59
2018-08-12T15:02:47.227Z,99878.98
2018-08-12T15:05:15.723Z,99877.97
2018-08-12T15:07:44.431Z,99877.47
2018-08-12T15:10:13.315Z,99873.16
2018-08-12T15:12:42.831Z,99869.23
2018-08-12T15:15:12.790Z,99869.41
2018-08-12T15:17:42.643Z,99860.53
2018-08-12T15:20:11.878Z,99848.74
2018-08-12T15:22:40.892Z,99847.89
2018-08-12T15:25:11.175Z,99844.31
2018-08-12T15:27:39.859Z,99836.61
2018-08-12T15:30:09.313Z,99841.76
2018-08-12T15:32:37.975Z,99842.77
2018-08-12T15:35:07.038Z,99839.34
2018-08-12T15:37:35.842Z,99836.09
2018-08-12T15:40:14.357Z,99837.62
2018-08-12T15:42:43.588Z,99828.73
2018-08-12T15:45:14.527Z,99829.41
2018-08-12T15:47:43.754Z,99827.02
2018-08-12T15:50:12.910Z,99819.50
2018-08-12T15:52:43.541Z,99814.53
2018-08-12T15:55:12.315Z,99809.41
2018-08-12T15:57:40.793Z,99814.36
2018-08-12T16:00:16.917Z,99810.77
2018-08-12T16:02:45.639Z,99806.69
2018-08-12T16:05:14.151Z,99806.50
2018-08-12T16:07:43.291Z,99804.64
2018-08-12T16:10:17.383Z,99804.27
2018-08-12T16:12:47.284Z,99802.56
2018-08-12T16:15:15.921Z,99800.86
2018-08-12T16:17:44.515Z,99801.02
2018-08-12T16:20:13.572Z,99786.97
2018-08-12T16:22:42.429Z,99782.73
2018-08-12T16:25:15.651Z,99781.38
2018-08-12T16:27:44.555Z,99782.56
2018-08-12T16:30:14.622Z,99781.05
2018-08-12T16:32:43.446Z,99778.48
2018-08-12T16:35:13.708Z,99771.94
2018-08-12T16:37:43.161Z,99767.50
2018-08-12T16:40:14.515Z,99771.92
2018-08-12T16:42:42.918Z,99763.20
2018-08-12T16:45:13.052Z,99757.19
2018-08-12T16:47:41.822Z,99761.45
2018-08-12T16:50:11.580Z,99751.89
2018-08-12T16:52:40.867Z,99749.16
2018-08-12T16:55:11.416Z,99746.77
2018-08-12T16:57:39.919Z,99742.02
2018-08-12T17:00:11.691Z,99746.08
2018-08-12T17:02:40.129Z,99741.64
2018-08-12T17:05:11.229Z,99743.69
2018-08-12T17:07:39.830Z,99736.38
2018-08-12T17:10:09.527Z,99740.83
2018-08-12T17:12:38.132Z,99738.40
2018-08-12T17:15:07.829Z,99739.28
2018-08-12T17:17:36.336Z,99732.45
2018-08-12T17:20:07.024Z,99731.42
2018-08-12T17:22:35.675Z,99726.45
2018-08-12T17:25:04.875Z,99727.15
2018-08-12T17:27:33.533Z,99729.04
2018-08-12T17:30:02.087Z,99719.98
2018-08-12T17:32:31.310Z,99726.15
2018-08-12T17:35:00.230Z,99726.30
2018-08-12T17:37:29.008Z,99717.73
2018-08-12T17:39:57.467Z,99717.74
2018-08-12T17:42:26.128Z,99709.55
2018-08-12T17:44:54.571Z,99709.83
2018-08-12T17:47:22.995Z,99703.78
2018-08-12T17:49:51.524Z,99701.88
2018-08-12T17:52:19.952Z,99702.38
2018-08-12T17:54:48.719Z,99698.10
2018-08-12T17:57:17.574Z,99708.22
2018-08-12T17:59:45.995Z,99701.01
2018-08-12T18:02:14.575Z,99700.34
2018-08-12T18:04:43.554Z,99701.65
2018-08-12T18:07:12.312Z,99706.86
2018-08-12T18:09:40.736Z,99702.25
2018-08-12T18:12:09.434Z,99697.45
2018-08-12T18:14:38.160Z,99698.23
2018-08-12T18:17:06.665Z,99702.45
2018-08-12T18:19:35.643Z,99698.08
2018-08-12T18:22:04.106Z,99699.09
2018-08-12T18:24:32.712Z,99698.38
2018-08-12T18:27:01.699Z,99700.18
2018-08-12T18:29:30.256Z,99698.60
2018-08-12T18:31:58.811Z,99696.86
2018-08-12T18:34:27.450Z,99694.00
2018-08-12T18:36:56.061Z,99695.05
2018-08-12T18:39:24.973Z,99696.75
2018-08-12T18:41:54.137Z,99697.48
2018-08-12T18:44:22.817Z,99695.34
2018-08-12T18:46:51.714Z,99696.85
2018-08-12T18:49:20.818Z,99691.36
2018-08-12T18:51:50.014Z,99688.89
2018-08-12T18:54:19.242Z,99686.05
2018-08-12T18:56:48.295Z,99689.74
2018-08-12T18:59:17.063Z,99687.41
2018-08-12T19:01:47.043Z,99698.57
2018-08-12T19:04:16.847Z,99688.44
2018-08-12T19:06:45.883Z,99695.03
2018-08-12T19:09:15.159Z,99694.14
2018-08-12T19:11:44.372Z,99696.44
2018-08-12T19:14:13.342Z,99700.70
2018-08-12T19:16:42.872Z,99705.87
2018-08-12T19:19:12.079Z,99707.39
2018-08-12T19:21:41.762Z,99712.09
2018-08-12T19:24:13.074Z,99714.09
2018-08-12T19:26:43.283Z,99721.87
2018-08-12T19:29:13.697Z,99716.27
2018-08-12T19:31:43.504Z,99716.83
2018-08-12T19:34:12.561Z,99717.83
2018-08-12T19:36:44.444Z,99720.13
2018-08-12T19:39:13.447Z,99718.02
2018-08-12T19:41:42.950Z,99710.32
2018-08-12T19:44:11.910Z,99703.47
2018-08-12T19:46:41.393Z,99705.48
2018-08-12T19:49:10.382Z,99699.98
2018-08-12T19:51:39.964Z,99706.77
2018-08-12T19:54:08.981Z,99705.31
2018-08-12T19:56:38.163Z,99702.30
2018-08-12T19:59:07.363Z,99702.82
2018-08-12T20:01:36.521Z,99698.52
2018-08-12T20:04:06.086Z,99700.48
2018-08-12T20:06:35.628Z,99699.14
2018-08-12T20:09:06.407Z,99704.31
2018-08-12T20:11:35.595Z,99696.80
2018-08-12T20:14:04.662Z,99700.49
2018-08-12T20:16:33.745Z,99699.13
2018-08-12T20:19:03.543Z,99699.98
2018-08-12T20:21:32.484Z,99701.61
2018-08-12T20:24:01.696Z,99700.75
2018-08-12T20:26:30.672Z,99703.43
2018-08-12T20:29:00.072Z,99700.66
2018-08-12T20:31:30.145Z,99700.53
2018-08-12T20:33:59.182Z,99703.59
2018-08-12T20:36:28.019Z,99700.54
2018-08-12T20:38:57.242Z,99702.26
2018-08-12T20:41:26.294Z,99703.52
2018-08-12T20:43:55.298Z,99703.81
2018-08-12T20:46:24.189Z,99706.97
2018-08-12T20:48:52.699Z,99699.28
2018-08-12T20:51:21.148Z,99704.64
2018-08-12T20:53:49.679Z,99704.84
2018-08-12T20:56:18.434Z,99702.02
2018-08-12T20:58:46.882Z,99705.27
2018-08-12T21:01:15.287Z,99698.52
2018-08-12T21:03:43.878Z,99693.16
2018-08-12T21:06:12.376Z,99689.28
2018-08-12T21:08:40.844Z,99686.45
2018-08-12T21:11:09.375Z,99678.77
2018-08-12T21:13:37.930Z,99682.08
2018-08-12T21:16:06.619Z,99671.16
2018-08-12T21:18:35.630Z,99675.71
2018-08-12T21:21:04.134Z,99671.05
2018-08-12T21:23:32.603Z,99676.77
2018-08-12T21:26:01.189Z,99665.71
2018-08-12T21:28:29.669Z,99666.00
2018-08-12T21:30:58.238Z,99665.19
2018-08-12T21:33:26.818Z,99662.45
2018-08-12T21:35:55.434Z,99669.48
2018-08-12T21:38:23.916Z,99673.73
2018-08-12T21:40:52.407Z,99669.05
2018-08-12T21:43:20.981Z,99671.80
2018-08-12T21:45:49.482Z,99672.56
2018-08-12T21:48:18.223Z,99671.80
2018-08-12T21:50:46.671Z,99673.36
2018-08-12T21:53:15.163Z,99671.22
2018-08-12T21:55:43.661Z,99673.03
2018-08-12T21:58:12.183Z,99677.28
2018-08-12T22:00:40.960Z,99677.13
2018-08-12T22:03:09.935Z,99674.60
2018-08-12T22:05:38.427Z,99674.70
2018-08-12T22:08:09.818Z,99675.77
2018-08-12T22:10:39.676Z,99676.64
2018-08-12T22:13:08.880Z,99670.41
2018-08-12T22:15:37.359Z,99677.50
2018-08-12T22:18:07.121Z,99670.36
2018-08-12T22:20:35.699Z,99669.88
2018-08-12T22:23:04.207Z,99669.99
2018-08-12T22:25:32.777Z,99666.62
2018-08-12T22:28:01.287Z,99658.08
2018-08-12T22:30:29.852Z,99656.50
2018-08-12T22:32:58.307Z,99666.71
2018-08-12T22:35:26.847Z,99659.03
2018-08-12T22:37:55.580Z,99657.41
2018-08-12T22:40:24.126Z,99658.70
2018-08-12T22:42:52.514Z,99659.02
2018-08-12T22:45:21.163Z,99659.73
2018-08-12T22:47:49.632Z,99665.94
2018-08-12T22:50:18.071Z,99665.27
2018-08-12T22:52:46.607Z,99668.47
2018-08-12T22:55:15.126Z,99666.06
2018-08-12T22:57:43.542Z,99661.45
2018-08-12T23:00:17.192Z,99669.23
2018-08-12T23:02:45.923Z,99661.18
2018-08-12T23:05:14.506Z,99655.81
2018-08-12T23:07:43.148Z,99658.28
2018-08-12T23:10:11.707Z,99658.37
2018-08-12T23:12:40.702Z,99663.36
2018-08-12T23:16:20.746Z,99654.41
2018-08-12T23:18:49.247Z,99658.72
2018-08-12T23:21:18.629Z,99652.40
2018-08-12T23:23:48.355Z,99653.70
2018-08-12T23:26:18.135Z,99653.00
2018-08-12T23:28:46.923Z,99650.31
2018-08-12T23:31:15.439Z,99652.03
2018-08-12T23:33:43.923Z,99646.66
2018-08-12T23:36:12.651Z,99643.81
2018-08-12T23:38:41.142Z,99643.59
2018-08-12T23:41:10.621Z,99642.97
2018-08-12T23:43:39.106Z,99631.68
2018-08-12T23:46:08.062Z,99623.41
2018-08-12T23:48:36.527Z,99620.82
2018-08-12T23:51:04.931Z,99626.03
2018-08-12T23:53:33.652Z,99623.52
2018-08-12T23:56:02.139Z,99618.27
2018-08-12T23:58:30.574Z,99614.34
